Wetterdaten: aktuell Donnerstag, 18.10.2018 09:20
Datum Zeit Temperatur Bodentemp. Luftfeuchte Luftdruck Niederschlag Windgeschw. Windrichtung Windrichtung Sonnenschein Nieder.dauer Evapotrans. Solarstrahl. Taupunkt Windchill Windböen
18.10.2018 09:20 12,4 °C 12,8 °C 100 % 1021,6 hPa 0,0 l/m² 0,0 km/h (0 Bft) N 0 ° 0 min 0 min 0 mm 56 W/m² 12,4 °C 12,4 °C 0,0 km/h (0 Bft)
18.10.2018 08:20 12,2 °C 12,2 °C 100 % 1021,2 hPa 0,0 l/m² 0,0 km/h (0 Bft) N 0 ° 0 min 0 min 0 mm 11 W/m² 12,2 °C 12,2 °C 0,0 km/h (0 Bft)
18.10.2018 07:20 12,0 °C 11,7 °C 100 % 1020,4 hPa 0,0 l/m² 0,0 km/h (0 Bft) N 0 ° 0 min 0 min 0 mm 0 W/m² 12,0 °C 12,0 °C 0,0 km/h (0 Bft)
18.10.2018 06:20 11,7 °C 11,7 °C 100 % 1020,1 hPa 0,0 l/m² 0,0 km/h (0 Bft) N 0 ° 0 min 0 min 0 mm 0 W/m² 11,7 °C 11,7 °C 0,0 km/h (0 Bft)
18.10.2018 05:20 11,6 °C 11,7 °C 100 % 1020,1 hPa 0,0 l/m² 0,0 km/h (0 Bft) N 0 ° 0 min 0 min 0 mm 0 W/m² 11,6 °C 11,6 °C 0,0 km/h (0 Bft)
18.10.2018 04:20 12,0 °C 11,7 °C 100 % 1020,0 hPa 0,0 l/m² 0,0 km/h (0 Bft) N 0 ° 0 min 0 min 0 mm 0 W/m² 12,0 °C 12,0 °C 0,0 km/h (0 Bft)
18.10.2018 03:20 11,8 °C 11,7 °C 100 % 1020,0 hPa 0,0 l/m² 0,0 km/h (0 Bft) N 0 ° 0 min 0 min 0 mm 0 W/m² 11,8 °C 11,8 °C 0,0 km/h (0 Bft)
18.10.2018 02:20 11,8 °C 11,1 °C 100 % 1019,7 hPa 0,0 l/m² 0,0 km/h (0 Bft) N 0 ° 0 min 0 min 0 mm 0 W/m² 11,8 °C 11,8 °C 0,0 km/h (0 Bft)
18.10.2018 01:20 13,3 °C 12,8 °C 100 % 1019,7 hPa 0,0 l/m² 0,0 km/h (0 Bft) N 0 ° 0 min 0 min 0 mm 0 W/m² 13,3 °C 13,3 °C 0,0 km/h (0 Bft)
18.10.2018 00:20 13,5 °C 13,3 °C 100 % 1019,7 hPa 0,0 l/m² 0,0 km/h (0 Bft) N 0 ° 0 min 0 min 0 mm 0 W/m² 13,5 °C 13,5 °C 0,0 km/h (0 Bft)
17.10.2018 23:20 14,0 °C 13,3 °C 99 % 1019,6 hPa 0,0 l/m² 0,0 km/h (0 Bft) N 0 ° 0 min 0 min 0 mm 0 W/m² 13,8 °C 14,0 °C 0,0 km/h (0 Bft)
17.10.2018 22:20 14,3 °C 13,9 °C 97 % 1019,6 hPa 0,0 l/m² 0,0 km/h (0 Bft) N 0 ° 0 min 0 min 0 mm 0 W/m² 13,8 °C 14,3 °C 0,0 km/h (0 Bft)
17.10.2018 21:20 14,9 °C 14,4 °C 90 % 1019,2 hPa 0,0 l/m² 1,8 km/h (1 Bft) NW 315 ° 0 min 0 min 0 mm 0 W/m² 13,3 °C 14,9 °C 7,2 km/h (2 Bft)
17.10.2018 20:20 15,9 °C 15,0 °C 84 % 1018,7 hPa 0,0 l/m² 0,0 km/h (0 Bft) N 0 ° 0 min 0 min 0 mm 0 W/m² 13,2 °C 15,9 °C 0,0 km/h (0 Bft)
17.10.2018 19:20 17,6 °C 16,1 °C 79 % 1018,4 hPa 0,0 l/m² 0,0 km/h (0 Bft) NW 315 ° 0 min 0 min 0 mm 0 W/m² 13,9 °C 17,6 °C 1,8 km/h (1 Bft)
17.10.2018 18:20 18,4 °C 16,1 °C 78 % 1017,7 hPa 0,0 l/m² 0,0 km/h (0 Bft) N 0 ° 8 min 0 min 0 mm 7 W/m² 14,5 °C 18,4 °C 0,0 km/h (0 Bft)
17.10.2018 17:20 20,6 °C 18,3 °C 68 % 1017,5 hPa 0,0 l/m² 0,0 km/h (0 Bft) N 0 ° 29 min 0 min 0 mm 65 W/m² 14,5 °C 20,6 °C 0,0 km/h (0 Bft)
17.10.2018 16:20 21,6 °C 19,4 °C 62 % 1017,6 hPa 0,0 l/m² 0,0 km/h (0 Bft) N 0 ° 38 min 0 min 0 mm 121 W/m² 14,0 °C 21,6 °C 0,0 km/h (0 Bft)
17.10.2018 15:20 21,9 °C 20,6 °C 60 % 1017,6 hPa 0,0 l/m² 0,0 km/h (0 Bft) S-SW 202 ° 58 min 0 min 0 mm 236 W/m² 13,8 °C 21,9 °C 7,2 km/h (2 Bft)
17.10.2018 14:20 21,8 °C 20,6 °C 59 % 1017,9 hPa 0,0 l/m² 0,0 km/h (0 Bft) N 0 ° 60 min 0 min 0 mm 346 W/m² 13,4 °C 21,8 °C 0,0 km/h (0 Bft)
17.10.2018 13:20 21,3 °C 20,0 °C 64 % 1018,1 hPa 0,0 l/m² 7,2 km/h (2 Bft) S 180 ° 59 min 0 min 0 mm 381 W/m² 14,2 °C 21,0 °C 9,0 km/h (2 Bft)
17.10.2018 12:20 19,9 °C 19,4 °C 71 % 1018,6 hPa 0,0 l/m² 0,0 km/h (0 Bft) N 0 ° 47 min 0 min 0 mm 385 W/m² 14,5 °C 19,9 °C 0,0 km/h (0 Bft)
17.10.2018 11:20 18,2 °C 17,2 °C 81 % 1018,6 hPa 0,0 l/m² 0,0 km/h (0 Bft) N 0 ° 60 min 0 min 0 mm 262 W/m² 14,9 °C 18,2 °C 0,0 km/h (0 Bft)
17.10.2018 10:20 15,7 °C 15,0 °C 99 % 1018,6 hPa 0,0 l/m² 0,0 km/h (0 Bft) N 0 ° 20 min 0 min 0 mm 216 W/m² 15,5 °C 15,7 °C 0,0 km/h (0 Bft)
17.10.2018 10:00 14,4 °C 13,9 °C 100 % 1018,5 hPa 0,0 l/m² 0,0 km/h (0 Bft) N 0 ° 0 min 0 min 0 mm 257 W/m² 14,4 °C 14,4 °C 0,0 km/h (0 Bft)
_ Min-Zeit 02:35 02:23 14:11 16:30 - 10:00 - - - - - - 02:35 02:35 10:00
Minimum _ 11,4 °C 10,6 °C 59 % 1017,5 hPa - 0,0 km/h (0 Bft) - - - - - - 11,4 °C 11,4 °C 0,0 km/h (0 Bft)
_ Max-Zeit 14:27 14:13 10:00 09:00 10:00 21:42 - - 10:00 10:00 14:00 14:05 10:18 14:27 13:12
Maximum _ 22,2 °C 21,1 °C 100 % 1021,6 hPa 0,0 l/m² 9,0 km/h
NW (2 Bft)
- - 1 min 0 min 0 mm 469 W/m² 15,6 °C 22,2 °C 14,4 km/h
SW (3 Bft)
Durchschnitt _ 15,7 °C 14,9 °C 88 % 1019,1 hPa #0,0 l/m² 0,2 km/h (0 Bft) SW - #0 min. #0 min. #0,000 mm 20 W/m² 13,4 °C 15,7 °C 0,8 km/h (0 Bft)